sensor_id;sensor_type;location;lat;lon;timestamp;P1;durP1;ratioP1;P2;durP2;ratioP2
11414;SDS011;5763;42.714;23.244;2022-11-20T00:00:10;4.15;;;1.25;;
11414;SDS011;5763;42.714;23.244;2022-11-20T00:02:39;3.15;;;1.20;;
11414;SDS011;5763;42.714;23.244;2022-11-20T00:05:07;3.00;;;1.60;;
11414;SDS011;5763;42.714;23.244;2022-11-20T00:07:34;4.28;;;1.30;;
11414;SDS011;5763;42.714;23.244;2022-11-20T00:10:01;1.75;;;1.27;;
11414;SDS011;5763;42.714;23.244;2022-11-20T00:12:28;3.47;;;1.30;;
11414;SDS011;5763;42.714;23.244;2022-11-20T00:14:55;1.63;;;1.10;;
11414;SDS011;5763;42.714;23.244;2022-11-20T00:17:22;3.70;;;1.05;;
11414;SDS011;5763;42.714;23.244;2022-11-20T00:19:50;2.08;;;1.25;;
11414;SDS011;5763;42.714;23.244;2022-11-20T00:22:17;3.20;;;1.10;;
11414;SDS011;5763;42.714;23.244;2022-11-20T00:24:44;1.90;;;0.93;;
11414;SDS011;5763;42.714;23.244;2022-11-20T00:27:11;3.80;;;1.20;;
11414;SDS011;5763;42.714;23.244;2022-11-20T00:29:38;4.35;;;1.10;;
11414;SDS011;5763;42.714;23.244;2022-11-20T00:32:05;1.42;;;1.00;;
11414;SDS011;5763;42.714;23.244;2022-11-20T00:34:32;1.40;;;1.10;;
11414;SDS011;5763;42.714;23.244;2022-11-20T00:37:01;5.05;;;1.50;;
11414;SDS011;5763;42.714;23.244;2022-11-20T00:39:27;8.52;;;1.50;;
11414;SDS011;5763;42.714;23.244;2022-11-20T00:41:54;2.03;;;1.10;;
11414;SDS011;5763;42.714;23.244;2022-11-20T00:44:21;3.30;;;1.27;;
11414;SDS011;5763;42.714;23.244;2022-11-20T00:46:48;2.92;;;1.10;;
11414;SDS011;5763;42.714;23.244;2022-11-20T00:49:14;4.50;;;1.20;;
11414;SDS011;5763;42.714;23.244;2022-11-20T00:51:41;2.05;;;1.20;;
11414;SDS011;5763;42.714;23.244;2022-11-20T00:54:09;5.90;;;1.83;;
11414;SDS011;5763;42.714;23.244;2022-11-20T00:56:36;2.80;;;1.25;;
11414;SDS011;5763;42.714;23.244;2022-11-20T00:59:03;4.03;;;1.27;;
11414;SDS011;5763;42.714;23.244;2022-11-20T01:01:30;3.38;;;1.40;;
11414;SDS011;5763;42.714;23.244;2022-11-20T01:03:57;4.28;;;1.25;;
11414;SDS011;5763;42.714;23.244;2022-11-20T01:06:25;1.73;;;1.10;;
11414;SDS011;5763;42.714;23.244;2022-11-20T01:08:54;3.75;;;1.38;;
11414;SDS011;5763;42.714;23.244;2022-11-20T01:11:23;4.20;;;1.42;;
11414;SDS011;5763;42.714;23.244;2022-11-20T01:13:52;4.18;;;1.25;;
11414;SDS011;5763;42.714;23.244;2022-11-20T01:16:20;5.20;;;1.55;;
11414;SDS011;5763;42.714;23.244;2022-11-20T01:18:49;4.35;;;1.40;;
11414;SDS011;5763;42.714;23.244;2022-11-20T01:21:17;2.85;;;1.38;;
11414;SDS011;5763;42.714;23.244;2022-11-20T01:23:46;3.70;;;1.33;;
11414;SDS011;5763;42.714;23.244;2022-11-20T01:26:15;2.03;;;1.50;;
11414;SDS011;5763;42.714;23.244;2022-11-20T01:28:44;2.30;;;1.23;;
11414;SDS011;5763;42.714;23.244;2022-11-20T01:31:12;3.58;;;1.38;;
11414;SDS011;5763;42.714;23.244;2022-11-20T01:33:41;3.85;;;1.20;;
11414;SDS011;5763;42.714;23.244;2022-11-20T01:36:09;3.08;;;1.08;;
11414;SDS011;5763;42.714;23.244;2022-11-20T01:38:37;2.17;;;1.13;;
11414;SDS011;5763;42.714;23.244;2022-11-20T01:41:04;1.67;;;0.90;;
11414;SDS011;5763;42.714;23.244;2022-11-20T01:43:32;3.53;;;1.15;;
11414;SDS011;5763;42.714;23.244;2022-11-20T01:46:01;2.33;;;1.02;;
11414;SDS011;5763;42.714;23.244;2022-11-20T01:48:32;2.38;;;1.02;;
11414;SDS011;5763;42.714;23.244;2022-11-20T01:51:02;4.18;;;1.10;;
11414;SDS011;5763;42.714;23.244;2022-11-20T01:53:33;2.63;;;1.15;;
11414;SDS011;5763;42.714;23.244;2022-11-20T01:56:04;1.75;;;0.90;;
11414;SDS011;5763;42.714;23.244;2022-11-20T01:58:35;2.80;;;1.15;;
11414;SDS011;5763;42.714;23.244;2022-11-20T02:01:09;1.38;;;0.85;;
11414;SDS011;5763;42.714;23.244;2022-11-20T02:03:37;4.57;;;1.45;;
11414;SDS011;5763;42.714;23.244;2022-11-20T02:06:06;4.50;;;0.90;;
11414;SDS011;5763;42.714;23.244;2022-11-20T02:08:38;1.55;;;0.98;;
11414;SDS011;5763;42.714;23.244;2022-11-20T02:11:05;4.07;;;0.90;;
11414;SDS011;5763;42.714;23.244;2022-11-20T02:13:32;1.80;;;0.90;;
11414;SDS011;5763;42.714;23.244;2022-11-20T02:16:17;1.33;;;0.90;;
11414;SDS011;5763;42.714;23.244;2022-11-20T02:18:47;1.45;;;0.88;;
11414;SDS011;5763;42.714;23.244;2022-11-20T02:21:20;2.67;;;1.17;;
11414;SDS011;5763;42.714;23.244;2022-11-20T02:23:55;2.47;;;1.20;;
11414;SDS011;5763;42.714;23.244;2022-11-20T02:26:27;2.78;;;1.40;;
11414;SDS011;5763;42.714;23.244;2022-11-20T02:28:56;2.22;;;0.88;;
11414;SDS011;5763;42.714;23.244;2022-11-20T02:31:24;3.58;;;0.90;;
11414;SDS011;5763;42.714;23.244;2022-11-20T02:33:54;3.35;;;1.40;;
11414;SDS011;5763;42.714;23.244;2022-11-20T02:36:21;4.05;;;1.30;;
11414;SDS011;5763;42.714;23.244;2022-11-20T02:38:49;3.05;;;1.10;;
11414;SDS011;5763;42.714;23.244;2022-11-20T02:41:18;2.33;;;1.10;;
11414;SDS011;5763;42.714;23.244;2022-11-20T02:43:44;2.17;;;1.35;;
11414;SDS011;5763;42.714;23.244;2022-11-20T02:46:12;3.88;;;1.58;;
11414;SDS011;5763;42.714;23.244;2022-11-20T02:48:38;2.45;;;1.30;;
11414;SDS011;5763;42.714;23.244;2022-11-20T02:51:05;3.97;;;1.50;;
11414;SDS011;5763;42.714;23.244;2022-11-20T02:53:32;5.38;;;1.60;;
11414;SDS011;5763;42.714;23.244;2022-11-20T02:55:59;6.35;;;1.40;;
11414;SDS011;5763;42.714;23.244;2022-11-20T02:58:27;2.78;;;1.40;;
11414;SDS011;5763;42.714;23.244;2022-11-20T03:00:54;3.08;;;1.33;;
11414;SDS011;5763;42.714;23.244;2022-11-20T03:03:20;7.10;;;1.33;;
11414;SDS011;5763;42.714;23.244;2022-11-20T03:05:47;2.92;;;1.20;;
11414;SDS011;5763;42.714;23.244;2022-11-20T03:08:14;3.33;;;1.25;;
11414;SDS011;5763;42.714;23.244;2022-11-20T03:10:41;4.60;;;1.30;;
11414;SDS011;5763;42.714;23.244;2022-11-20T03:13:07;4.50;;;1.52;;
11414;SDS011;5763;42.714;23.244;2022-11-20T03:15:36;4.50;;;1.20;;
11414;SDS011;5763;42.714;23.244;2022-11-20T03:18:04;3.17;;;1.33;;
11414;SDS011;5763;42.714;23.244;2022-11-20T03:20:32;3.10;;;1.60;;
11414;SDS011;5763;42.714;23.244;2022-11-20T03:22:59;3.10;;;1.40;;
11414;SDS011;5763;42.714;23.244;2022-11-20T03:25:26;7.18;;;1.70;;
11414;SDS011;5763;42.714;23.244;2022-11-20T03:27:53;3.10;;;1.58;;
11414;SDS011;5763;42.714;23.244;2022-11-20T03:30:20;2.25;;;1.27;;
11414;SDS011;5763;42.714;23.244;2022-11-20T03:32:48;2.15;;;1.40;;
11414;SDS011;5763;42.714;23.244;2022-11-20T03:35:18;2.58;;;1.40;;
11414;SDS011;5763;42.714;23.244;2022-11-20T03:37:45;4.07;;;1.55;;
11414;SDS011;5763;42.714;23.244;2022-11-20T03:40:12;3.13;;;1.40;;
11414;SDS011;5763;42.714;23.244;2022-11-20T03:42:39;4.88;;;1.40;;
11414;SDS011;5763;42.714;23.244;2022-11-20T03:45:11;6.25;;;1.67;;
11414;SDS011;5763;42.714;23.244;2022-11-20T03:47:39;4.85;;;1.45;;
11414;SDS011;5763;42.714;23.244;2022-11-20T03:50:08;5.78;;;1.45;;
11414;SDS011;5763;42.714;23.244;2022-11-20T03:52:35;3.38;;;1.13;;
11414;SDS011;5763;42.714;23.244;2022-11-20T03:55:02;3.35;;;1.13;;
11414;SDS011;5763;42.714;23.244;2022-11-20T03:57:29;5.00;;;1.25;;
11414;SDS011;5763;42.714;23.244;2022-11-20T03:59:56;2.38;;;1.30;;
11414;SDS011;5763;42.714;23.244;2022-11-20T04:02:23;2.97;;;1.30;;
11414;SDS011;5763;42.714;23.244;2022-11-20T04:04:50;3.30;;;1.88;;
11414;SDS011;5763;42.714;23.244;2022-11-20T04:07:18;2.88;;;1.20;;
11414;SDS011;5763;42.714;23.244;2022-11-20T04:09:44;4.75;;;1.60;;
11414;SDS011;5763;42.714;23.244;2022-11-20T04:12:12;5.72;;;1.60;;
11414;SDS011;5763;42.714;23.244;2022-11-20T04:14:39;4.10;;;1.55;;
11414;SDS011;5763;42.714;23.244;2022-11-20T04:17:06;3.65;;;1.30;;
11414;SDS011;5763;42.714;23.244;2022-11-20T04:19:33;2.38;;;1.05;;
11414;SDS011;5763;42.714;23.244;2022-11-20T04:21:59;2.67;;;1.10;;
11414;SDS011;5763;42.714;23.244;2022-11-20T04:24:28;2.20;;;1.13;;
11414;SDS011;5763;42.714;23.244;2022-11-20T04:26:54;2.67;;;1.10;;
11414;SDS011;5763;42.714;23.244;2022-11-20T04:29:21;1.63;;;1.00;;
11414;SDS011;5763;42.714;23.244;2022-11-20T04:31:48;2.33;;;1.10;;
11414;SDS011;5763;42.714;23.244;2022-11-20T04:34:14;3.83;;;0.88;;
11414;SDS011;5763;42.714;23.244;2022-11-20T04:36:41;3.30;;;1.10;;
11414;SDS011;5763;42.714;23.244;2022-11-20T04:39:11;2.90;;;1.10;;
11414;SDS011;5763;42.714;23.244;2022-11-20T04:41:41;4.70;;;1.40;;
11414;SDS011;5763;42.714;23.244;2022-11-20T04:44:08;1.70;;;0.80;;
11414;SDS011;5763;42.714;23.244;2022-11-20T04:46:35;4.80;;;1.05;;
11414;SDS011;5763;42.714;23.244;2022-11-20T04:49:03;3.55;;;0.95;;
11414;SDS011;5763;42.714;23.244;2022-11-20T04:51:30;3.97;;;0.93;;
11414;SDS011;5763;42.714;23.244;2022-11-20T04:53:57;3.17;;;0.93;;
11414;SDS011;5763;42.714;23.244;2022-11-20T04:56:24;2.28;;;1.00;;
11414;SDS011;5763;42.714;23.244;2022-11-20T04:58:52;3.22;;;1.08;;
11414;SDS011;5763;42.714;23.244;2022-11-20T05:01:19;4.68;;;1.10;;
11414;SDS011;5763;42.714;23.244;2022-11-20T05:03:47;2.33;;;1.08;;
11414;SDS011;5763;42.714;23.244;2022-11-20T05:06:16;1.70;;;0.90;;
11414;SDS011;5763;42.714;23.244;2022-11-20T05:08:45;3.83;;;0.98;;
11414;SDS011;5763;42.714;23.244;2022-11-20T05:11:12;2.28;;;1.33;;
11414;SDS011;5763;42.714;23.244;2022-11-20T05:13:41;4.00;;;1.42;;
11414;SDS011;5763;42.714;23.244;2022-11-20T05:16:10;3.42;;;1.17;;
11414;SDS011;5763;42.714;23.244;2022-11-20T05:18:38;2.90;;;0.85;;
11414;SDS011;5763;42.714;23.244;2022-11-20T05:21:06;2.55;;;1.00;;
11414;SDS011;5763;42.714;23.244;2022-11-20T05:23:34;1.77;;;0.90;;
11414;SDS011;5763;42.714;23.244;2022-11-20T05:26:01;2.72;;;1.10;;
11414;SDS011;5763;42.714;23.244;2022-11-20T05:28:29;2.97;;;0.98;;
11414;SDS011;5763;42.714;23.244;2022-11-20T05:31:03;3.67;;;1.02;;
11414;SDS011;5763;42.714;23.244;2022-11-20T05:33:33;3.03;;;1.25;;
11414;SDS011;5763;42.714;23.244;2022-11-20T05:36:01;3.35;;;1.02;;
11414;SDS011;5763;42.714;23.244;2022-11-20T05:38:28;1.88;;;1.23;;
11414;SDS011;5763;42.714;23.244;2022-11-20T05:40:55;4.28;;;1.20;;
11414;SDS011;5763;42.714;23.244;2022-11-20T05:43:30;5.50;;;1.23;;
11414;SDS011;5763;42.714;23.244;2022-11-20T05:45:58;2.03;;;0.80;;
11414;SDS011;5763;42.714;23.244;2022-11-20T05:48:24;1.70;;;0.90;;
11414;SDS011;5763;42.714;23.244;2022-11-20T05:50:53;2.22;;;1.02;;
11414;SDS011;5763;42.714;23.244;2022-11-20T05:53:19;2.80;;;0.98;;
11414;SDS011;5763;42.714;23.244;2022-11-20T05:55:46;1.38;;;0.90;;
11414;SDS011;5763;42.714;23.244;2022-11-20T05:58:21;2.05;;;0.98;;
11414;SDS011;5763;42.714;23.244;2022-11-20T06:00:48;2.38;;;0.90;;
11414;SDS011;5763;42.714;23.244;2022-11-20T06:03:15;4.97;;;1.23;;
11414;SDS011;5763;42.714;23.244;2022-11-20T06:05:41;1.85;;;1.00;;
11414;SDS011;5763;42.714;23.244;2022-11-20T06:08:10;2.45;;;1.23;;
11414;SDS011;5763;42.714;23.244;2022-11-20T06:10:36;2.83;;;1.10;;
11414;SDS011;5763;42.714;23.244;2022-11-20T06:13:03;3.33;;;0.95;;
11414;SDS011;5763;42.714;23.244;2022-11-20T06:15:30;1.83;;;0.85;;
11414;SDS011;5763;42.714;23.244;2022-11-20T06:17:56;6.13;;;1.17;;
11414;SDS011;5763;42.714;23.244;2022-11-20T06:20:24;2.92;;;1.10;;
11414;SDS011;5763;42.714;23.244;2022-11-20T06:22:50;3.78;;;1.50;;
11414;SDS011;5763;42.714;23.244;2022-11-20T06:25:19;2.55;;;1.00;;
11414;SDS011;5763;42.714;23.244;2022-11-20T06:27:46;1.25;;;0.93;;
11414;SDS011;5763;42.714;23.244;2022-11-20T06:30:13;2.75;;;1.00;;
11414;SDS011;5763;42.714;23.244;2022-11-20T06:32:39;2.17;;;0.98;;
11414;SDS011;5763;42.714;23.244;2022-11-20T06:35:06;1.48;;;0.98;;
11414;SDS011;5763;42.714;23.244;2022-11-20T06:37:34;1.60;;;0.90;;
11414;SDS011;5763;42.714;23.244;2022-11-20T06:40:00;3.40;;;1.10;;
11414;SDS011;5763;42.714;23.244;2022-11-20T06:42:29;1.33;;;0.90;;
11414;SDS011;5763;42.714;23.244;2022-11-20T06:44:56;2.33;;;1.20;;
11414;SDS011;5763;42.714;23.244;2022-11-20T06:47:23;4.30;;;1.02;;
11414;SDS011;5763;42.714;23.244;2022-11-20T06:49:50;2.55;;;0.70;;
11414;SDS011;5763;42.714;23.244;2022-11-20T06:52:17;2.92;;;1.15;;
11414;SDS011;5763;42.714;23.244;2022-11-20T06:54:44;3.45;;;1.02;;
11414;SDS011;5763;42.714;23.244;2022-11-20T06:57:11;4.47;;;1.00;;
11414;SDS011;5763;42.714;23.244;2022-11-20T06:59:39;2.95;;;0.88;;
11414;SDS011;5763;42.714;23.244;2022-11-20T07:02:08;1.33;;;1.13;;
11414;SDS011;5763;42.714;23.244;2022-11-20T07:04:35;4.40;;;1.00;;
11414;SDS011;5763;42.714;23.244;2022-11-20T07:07:02;3.00;;;0.90;;
11414;SDS011;5763;42.714;23.244;2022-11-20T07:09:29;3.10;;;1.13;;
11414;SDS011;5763;42.714;23.244;2022-11-20T07:11:56;4.15;;;1.63;;
11414;SDS011;5763;42.714;23.244;2022-11-20T07:14:23;2.63;;;1.10;;
11414;SDS011;5763;42.714;23.244;2022-11-20T07:16:51;2.85;;;0.95;;
11414;SDS011;5763;42.714;23.244;2022-11-20T07:19:18;3.45;;;1.25;;
11414;SDS011;5763;42.714;23.244;2022-11-20T07:21:45;3.40;;;1.27;;
11414;SDS011;5763;42.714;23.244;2022-11-20T07:24:11;3.05;;;1.30;;
11414;SDS011;5763;42.714;23.244;2022-11-20T07:26:38;2.58;;;0.88;;
11414;SDS011;5763;42.714;23.244;2022-11-20T07:29:05;2.35;;;1.50;;
11414;SDS011;5763;42.714;23.244;2022-11-20T07:31:32;5.38;;;1.33;;
11414;SDS011;5763;42.714;23.244;2022-11-20T07:34:00;3.00;;;1.20;;
11414;SDS011;5763;42.714;23.244;2022-11-20T07:36:27;3.00;;;1.20;;
11414;SDS011;5763;42.714;23.244;2022-11-20T07:38:54;3.47;;;1.27;;
11414;SDS011;5763;42.714;23.244;2022-11-20T07:41:21;5.60;;;4.03;;
11414;SDS011;5763;42.714;23.244;2022-11-20T07:43:47;5.80;;;1.75;;
11414;SDS011;5763;42.714;23.244;2022-11-20T07:46:14;2.75;;;1.20;;
11414;SDS011;5763;42.714;23.244;2022-11-20T07:48:41;3.25;;;1.40;;
11414;SDS011;5763;42.714;23.244;2022-11-20T07:51:09;4.72;;;1.45;;
11414;SDS011;5763;42.714;23.244;2022-11-20T07:53:35;3.60;;;1.50;;
11414;SDS011;5763;42.714;23.244;2022-11-20T07:56:03;3.25;;;1.20;;
11414;SDS011;5763;42.714;23.244;2022-11-20T07:58:30;4.57;;;1.60;;
11414;SDS011;5763;42.714;23.244;2022-11-20T08:00:58;4.82;;;1.30;;
11414;SDS011;5763;42.714;23.244;2022-11-20T08:03:28;3.72;;;1.27;;
11414;SDS011;5763;42.714;23.244;2022-11-20T08:05:56;3.42;;;1.10;;
11414;SDS011;5763;42.714;23.244;2022-11-20T08:08:26;4.35;;;1.42;;
11414;SDS011;5763;42.714;23.244;2022-11-20T08:10:53;3.67;;;1.17;;
11414;SDS011;5763;42.714;23.244;2022-11-20T08:13:40;4.53;;;1.35;;
11414;SDS011;5763;42.714;23.244;2022-11-20T08:16:24;3.13;;;1.38;;
11414;SDS011;5763;42.714;23.244;2022-11-20T08:18:50;4.68;;;1.40;;
11414;SDS011;5763;42.714;23.244;2022-11-20T08:21:17;6.07;;;1.88;;
11414;SDS011;5763;42.714;23.244;2022-11-20T08:23:45;2.40;;;1.27;;
11414;SDS011;5763;42.714;23.244;2022-11-20T08:26:12;5.38;;;1.95;;
11414;SDS011;5763;42.714;23.244;2022-11-20T08:28:39;3.33;;;1.42;;
11414;SDS011;5763;42.714;23.244;2022-11-20T08:31:06;3.10;;;1.20;;
11414;SDS011;5763;42.714;23.244;2022-11-20T08:33:32;3.75;;;1.40;;
11414;SDS011;5763;42.714;23.244;2022-11-20T08:35:59;2.88;;;1.40;;
11414;SDS011;5763;42.714;23.244;2022-11-20T08:38:27;2.83;;;1.45;;
11414;SDS011;5763;42.714;23.244;2022-11-20T08:40:57;4.15;;;1.30;;
11414;SDS011;5763;42.714;23.244;2022-11-20T08:43:41;3.67;;;1.33;;
11414;SDS011;5763;42.714;23.244;2022-11-20T08:46:08;3.58;;;1.70;;
11414;SDS011;5763;42.714;23.244;2022-11-20T08:48:35;7.07;;;2.25;;
11414;SDS011;5763;42.714;23.244;2022-11-20T08:51:02;8.70;;;2.00;;
11414;SDS011;5763;42.714;23.244;2022-11-20T08:53:29;5.32;;;2.08;;
11414;SDS011;5763;42.714;23.244;2022-11-20T08:55:57;9.15;;;4.35;;
11414;SDS011;5763;42.714;23.244;2022-11-20T08:58:24;5.68;;;1.85;;
11414;SDS011;5763;42.714;23.244;2022-11-20T09:00:51;3.80;;;1.73;;
11414;SDS011;5763;42.714;23.244;2022-11-20T09:03:18;4.95;;;2.35;;
11414;SDS011;5763;42.714;23.244;2022-11-20T09:05:45;3.63;;;2.00;;
11414;SDS011;5763;42.714;23.244;2022-11-20T09:08:12;9.75;;;2.65;;
11414;SDS011;5763;42.714;23.244;2022-11-20T09:10:38;5.43;;;1.83;;
11414;SDS011;5763;42.714;23.244;2022-11-20T09:13:07;5.30;;;1.98;;
11414;SDS011;5763;42.714;23.244;2022-11-20T09:15:33;3.50;;;1.73;;
11414;SDS011;5763;42.714;23.244;2022-11-20T09:18:01;3.05;;;1.80;;
11414;SDS011;5763;42.714;23.244;2022-11-20T09:20:29;6.90;;;2.00;;
11414;SDS011;5763;42.714;23.244;2022-11-20T09:22:57;5.18;;;1.88;;
11414;SDS011;5763;42.714;23.244;2022-11-20T09:25:24;2.85;;;1.90;;
11414;SDS011;5763;42.714;23.244;2022-11-20T09:27:54;5.75;;;1.85;;
11414;SDS011;5763;42.714;23.244;2022-11-20T09:30:23;6.13;;;1.73;;
11414;SDS011;5763;42.714;23.244;2022-11-20T09:32:50;3.25;;;1.58;;
11414;SDS011;5763;42.714;23.244;2022-11-20T09:35:17;2.15;;;1.45;;
11414;SDS011;5763;42.714;23.244;2022-11-20T09:37:44;3.33;;;1.40;;
11414;SDS011;5763;42.714;23.244;2022-11-20T09:40:17;4.90;;;1.35;;
11414;SDS011;5763;42.714;23.244;2022-11-20T09:42:48;5.22;;;1.30;;
11414;SDS011;5763;42.714;23.244;2022-11-20T09:45:28;4.50;;;1.30;;
11414;SDS011;5763;42.714;23.244;2022-11-20T09:48:08;2.88;;;1.55;;
11414;SDS011;5763;42.714;23.244;2022-11-20T09:50:48;2.67;;;1.40;;
11414;SDS011;5763;42.714;23.244;2022-11-20T09:53:23;3.55;;;1.55;;
11414;SDS011;5763;42.714;23.244;2022-11-20T09:55:56;4.53;;;1.75;;
11414;SDS011;5763;42.714;23.244;2022-11-20T09:58:25;5.85;;;1.60;;
11414;SDS011;5763;42.714;23.244;2022-11-20T10:01:00;5.30;;;1.75;;
11414;SDS011;5763;42.714;23.244;2022-11-20T10:03:37;7.75;;;1.77;;
11414;SDS011;5763;42.714;23.244;2022-11-20T10:06:11;6.05;;;2.00;;
11414;SDS011;5763;42.714;23.244;2022-11-20T10:08:43;5.47;;;1.95;;
11414;SDS011;5763;42.714;23.244;2022-11-20T10:11:16;8.38;;;2.30;;
11414;SDS011;5763;42.714;23.244;2022-11-20T10:13:54;7.38;;;2.33;;
11414;SDS011;5763;42.714;23.244;2022-11-20T10:16:34;4.68;;;2.47;;
11414;SDS011;5763;42.714;23.244;2022-11-20T10:19:09;7.47;;;2.20;;
11414;SDS011;5763;42.714;23.244;2022-11-20T10:21:49;7.25;;;2.53;;
11414;SDS011;5763;42.714;23.244;2022-11-20T10:24:43;6.85;;;2.15;;
11414;SDS011;5763;42.714;23.244;2022-11-20T10:27:23;7.28;;;3.03;;
11414;SDS011;5763;42.714;23.244;2022-11-20T10:30:06;6.30;;;2.58;;
11414;SDS011;5763;42.714;23.244;2022-11-20T10:32:37;6.63;;;2.50;;
11414;SDS011;5763;42.714;23.244;2022-11-20T10:35:06;8.80;;;2.20;;
11414;SDS011;5763;42.714;23.244;2022-11-20T10:37:43;9.07;;;2.67;;
11414;SDS011;5763;42.714;23.244;2022-11-20T10:40:18;8.18;;;2.60;;
11414;SDS011;5763;42.714;23.244;2022-11-20T10:42:49;7.22;;;3.10;;
11414;SDS011;5763;42.714;23.244;2022-11-20T10:45:21;8.93;;;3.10;;
11414;SDS011;5763;42.714;23.244;2022-11-20T10:48:12;5.15;;;2.65;;
11414;SDS011;5763;42.714;23.244;2022-11-20T10:50:49;9.88;;;3.15;;
11414;SDS011;5763;42.714;23.244;2022-11-20T10:53:44;6.53;;;1.98;;
11414;SDS011;5763;42.714;23.244;2022-11-20T10:56:20;3.45;;;0.90;;
11414;SDS011;5763;42.714;23.244;2022-11-20T10:59:04;2.40;;;0.60;;
11414;SDS011;5763;42.714;23.244;2022-11-20T11:01:49;3.75;;;0.95;;
11414;SDS011;5763;42.714;23.244;2022-11-20T11:04:22;2.03;;;0.98;;
11414;SDS011;5763;42.714;23.244;2022-11-20T11:06:57;4.20;;;0.90;;
11414;SDS011;5763;42.714;23.244;2022-11-20T11:09:32;4.00;;;1.20;;
11414;SDS011;5763;42.714;23.244;2022-11-20T11:12:05;3.20;;;0.60;;
11414;SDS011;5763;42.714;23.244;2022-11-20T11:14:41;1.25;;;0.60;;
11414;SDS011;5763;42.714;23.244;2022-11-20T11:17:18;2.67;;;0.70;;
11414;SDS011;5763;42.714;23.244;2022-11-20T11:19:57;2.17;;;0.65;;
11414;SDS011;5763;42.714;23.244;2022-11-20T11:22:33;2.33;;;0.70;;
11414;SDS011;5763;42.714;23.244;2022-11-20T11:25:08;1.13;;;0.82;;
11414;SDS011;5763;42.714;23.244;2022-11-20T11:27:46;1.85;;;0.85;;
11414;SDS011;5763;42.714;23.244;2022-11-20T11:30:14;1.83;;;0.80;;
11414;SDS011;5763;42.714;23.244;2022-11-20T11:32:43;3.47;;;0.77;;
11414;SDS011;5763;42.714;23.244;2022-11-20T11:35:22;3.25;;;1.13;;
11414;SDS011;5763;42.714;23.244;2022-11-20T11:37:50;2.42;;;0.82;;
11414;SDS011;5763;42.714;23.244;2022-11-20T11:40:19;0.80;;;0.40;;
11414;SDS011;5763;42.714;23.244;2022-11-20T11:42:50;2.33;;;0.88;;
11414;SDS011;5763;42.714;23.244;2022-11-20T11:45:20;4.82;;;1.00;;
11414;SDS011;5763;42.714;23.244;2022-11-20T11:47:48;1.83;;;0.77;;
11414;SDS011;5763;42.714;23.244;2022-11-20T11:50:18;1.42;;;0.85;;
11414;SDS011;5763;42.714;23.244;2022-11-20T11:52:50;4.07;;;0.90;;
11414;SDS011;5763;42.714;23.244;2022-11-20T11:55:25;3.28;;;0.80;;
11414;SDS011;5763;42.714;23.244;2022-11-20T11:57:59;1.85;;;0.90;;
11414;SDS011;5763;42.714;23.244;2022-11-20T12:00:33;2.00;;;0.90;;
11414;SDS011;5763;42.714;23.244;2022-11-20T12:03:05;2.17;;;0.93;;
11414;SDS011;5763;42.714;23.244;2022-11-20T12:05:41;3.40;;;1.27;;
11414;SDS011;5763;42.714;23.244;2022-11-20T12:08:13;2.65;;;0.85;;
11414;SDS011;5763;42.714;23.244;2022-11-20T12:10:45;1.73;;;1.08;;
11414;SDS011;5763;42.714;23.244;2022-11-20T12:13:18;2.15;;;0.70;;
11414;SDS011;5763;42.714;23.244;2022-11-20T12:16:01;4.25;;;0.90;;
11414;SDS011;5763;42.714;23.244;2022-11-20T12:18:30;2.33;;;0.63;;
11414;SDS011;5763;42.714;23.244;2022-11-20T12:21:06;2.85;;;1.20;;
11414;SDS011;5763;42.714;23.244;2022-11-20T12:23:44;2.22;;;0.93;;
11414;SDS011;5763;42.714;23.244;2022-11-20T12:26:27;3.55;;;0.80;;
11414;SDS011;5763;42.714;23.244;2022-11-20T12:29:06;2.85;;;1.13;;
11414;SDS011;5763;42.714;23.244;2022-11-20T12:31:52;2.97;;;1.70;;
11414;SDS011;5763;42.714;23.244;2022-11-20T12:34:33;2.67;;;0.90;;
11414;SDS011;5763;42.714;23.244;2022-11-20T12:37:14;2.55;;;1.10;;
11414;SDS011;5763;42.714;23.244;2022-11-20T12:39:48;3.83;;;1.20;;
11414;SDS011;5763;42.714;23.244;2022-11-20T12:48:39;3.03;;;1.50;;
11414;SDS011;5763;42.714;23.244;2022-11-20T12:51:27;2.97;;;1.58;;
11414;SDS011;5763;42.714;23.244;2022-11-20T12:54:11;2.78;;;1.50;;
11414;SDS011;5763;42.714;23.244;2022-11-20T12:56:55;2.83;;;1.40;;
11414;SDS011;5763;42.714;23.244;2022-11-20T12:59:33;2.17;;;1.10;;
11414;SDS011;5763;42.714;23.244;2022-11-20T13:02:16;2.90;;;1.48;;
11414;SDS011;5763;42.714;23.244;2022-11-20T13:04:58;4.00;;;1.38;;
11414;SDS011;5763;42.714;23.244;2022-11-20T13:07:37;4.68;;;1.17;;
11414;SDS011;5763;42.714;23.244;2022-11-20T13:10:13;2.65;;;1.10;;
11414;SDS011;5763;42.714;23.244;2022-11-20T13:12:49;3.63;;;1.10;;
11414;SDS011;5763;42.714;23.244;2022-11-20T13:15:29;2.03;;;1.33;;
11414;SDS011;5763;42.714;23.244;2022-11-20T13:18:11;2.08;;;1.20;;
11414;SDS011;5763;42.714;23.244;2022-11-20T13:20:44;2.20;;;0.90;;
11414;SDS011;5763;42.714;23.244;2022-11-20T13:23:22;3.08;;;1.10;;
11414;SDS011;5763;42.714;23.244;2022-11-20T13:26:03;4.22;;;1.00;;
11414;SDS011;5763;42.714;23.244;2022-11-20T13:28:33;4.40;;;1.27;;
11414;SDS011;5763;42.714;23.244;2022-11-20T13:31:03;3.08;;;1.20;;
11414;SDS011;5763;42.714;23.244;2022-11-20T13:33:32;4.95;;;1.75;;
11414;SDS011;5763;42.714;23.244;2022-11-20T13:36:05;4.30;;;1.80;;
11414;SDS011;5763;42.714;23.244;2022-11-20T13:38:41;3.83;;;1.90;;
11414;SDS011;5763;42.714;23.244;2022-11-20T13:41:22;6.82;;;2.60;;
11414;SDS011;5763;42.714;23.244;2022-11-20T13:44:04;4.68;;;2.20;;
11414;SDS011;5763;42.714;23.244;2022-11-20T13:46:39;7.15;;;2.30;;
11414;SDS011;5763;42.714;23.244;2022-11-20T13:49:14;2.55;;;1.80;;
11414;SDS011;5763;42.714;23.244;2022-11-20T13:51:46;3.42;;;2.03;;
11414;SDS011;5763;42.714;23.244;2022-11-20T13:57:33;4.53;;;2.60;;
11414;SDS011;5763;42.714;23.244;2022-11-20T14:00:17;6.40;;;2.50;;
11414;SDS011;5763;42.714;23.244;2022-11-20T14:02:50;3.85;;;1.80;;
11414;SDS011;5763;42.714;23.244;2022-11-20T14:05:34;2.53;;;2.03;;
11414;SDS011;5763;42.714;23.244;2022-11-20T14:08:04;5.63;;;2.17;;
11414;SDS011;5763;42.714;23.244;2022-11-20T14:10:37;2.85;;;1.80;;
11414;SDS011;5763;42.714;23.244;2022-11-20T14:13:17;2.17;;;1.27;;
11414;SDS011;5763;42.714;23.244;2022-11-20T14:15:47;3.35;;;1.02;;
11414;SDS011;5763;42.714;23.244;2022-11-20T14:18:24;1.40;;;0.80;;
11414;SDS011;5763;42.714;23.244;2022-11-20T14:20:54;2.72;;;0.95;;
11414;SDS011;5763;42.714;23.244;2022-11-20T14:23:24;2.33;;;0.90;;
11414;SDS011;5763;42.714;23.244;2022-11-20T14:25:54;4.20;;;1.00;;
11414;SDS011;5763;42.714;23.244;2022-11-20T14:28:26;1.55;;;0.90;;
11414;SDS011;5763;42.714;23.244;2022-11-20T14:30:57;1.40;;;0.85;;
11414;SDS011;5763;42.714;23.244;2022-11-20T14:33:26;2.70;;;0.90;;
11414;SDS011;5763;42.714;23.244;2022-11-20T14:35:54;2.00;;;1.10;;
11414;SDS011;5763;42.714;23.244;2022-11-20T14:38:25;1.13;;;0.73;;
11414;SDS011;5763;42.714;23.244;2022-11-20T14:41:05;2.38;;;0.70;;
11414;SDS011;5763;42.714;23.244;2022-11-20T14:43:34;2.40;;;1.10;;
11414;SDS011;5763;42.714;23.244;2022-11-20T14:46:04;4.20;;;1.20;;
11414;SDS011;5763;42.714;23.244;2022-11-20T14:48:35;1.17;;;1.08;;
11414;SDS011;5763;42.714;23.244;2022-11-20T14:51:08;2.13;;;1.10;;
11414;SDS011;5763;42.714;23.244;2022-11-20T14:53:37;1.67;;;1.05;;
11414;SDS011;5763;42.714;23.244;2022-11-20T14:56:05;4.32;;;1.73;;
11414;SDS011;5763;42.714;23.244;2022-11-20T14:58:33;5.03;;;1.40;;
11414;SDS011;5763;42.714;23.244;2022-11-20T15:01:01;1.23;;;0.95;;
11414;SDS011;5763;42.714;23.244;2022-11-20T15:03:33;3.17;;;1.20;;
11414;SDS011;5763;42.714;23.244;2022-11-20T15:06:00;3.22;;;1.35;;
11414;SDS011;5763;42.714;23.244;2022-11-20T15:08:28;2.70;;;1.10;;
11414;SDS011;5763;42.714;23.244;2022-11-20T15:10:55;2.80;;;1.98;;
11414;SDS011;5763;42.714;23.244;2022-11-20T15:13:24;3.67;;;2.63;;
11414;SDS011;5763;42.714;23.244;2022-11-20T15:15:55;4.20;;;3.10;;